sensor_id;sensor_type;location;lat;lon;timestamp;P1;durP1;ratioP1;P2;durP2;ratioP2
24143;SDS011;12307;50.828;6.080;2023-07-31T00:01:55;1.20;;;0.90;;
24143;SDS011;12307;50.828;6.080;2023-07-31T00:04:21;1.48;;;0.98;;
24143;SDS011;12307;50.828;6.080;2023-07-31T00:06:46;1.40;;;0.95;;
24143;SDS011;12307;50.828;6.080;2023-07-31T00:09:12;1.13;;;1.00;;
24143;SDS011;12307;50.828;6.080;2023-07-31T00:11:38;1.00;;;0.88;;
24143;SDS011;12307;50.828;6.080;2023-07-31T00:14:05;0.95;;;0.90;;
24143;SDS011;12307;50.828;6.080;2023-07-31T00:16:30;1.30;;;1.20;;
24143;SDS011;12307;50.828;6.080;2023-07-31T00:18:56;1.52;;;1.17;;
24143;SDS011;12307;50.828;6.080;2023-07-31T00:21:22;1.60;;;1.13;;
24143;SDS011;12307;50.828;6.080;2023-07-31T00:23:47;1.17;;;1.08;;
24143;SDS011;12307;50.828;6.080;2023-07-31T00:26:13;1.30;;;1.10;;
24143;SDS011;12307;50.828;6.080;2023-07-31T00:28:39;1.27;;;1.17;;
24143;SDS011;12307;50.828;6.080;2023-07-31T00:31:06;1.23;;;1.13;;
24143;SDS011;12307;50.828;6.080;2023-07-31T00:33:31;1.20;;;1.10;;
24143;SDS011;12307;50.828;6.080;2023-07-31T00:35:59;1.42;;;1.00;;
24143;SDS011;12307;50.828;6.080;2023-07-31T00:38:25;1.13;;;1.00;;
24143;SDS011;12307;50.828;6.080;2023-07-31T00:40:51;1.65;;;1.30;;
24143;SDS011;12307;50.828;6.080;2023-07-31T00:43:16;1.65;;;1.10;;
24143;SDS011;12307;50.828;6.080;2023-07-31T00:45:42;1.15;;;1.05;;
24143;SDS011;12307;50.828;6.080;2023-07-31T00:48:09;1.17;;;0.80;;
24143;SDS011;12307;50.828;6.080;2023-07-31T00:50:35;1.27;;;0.90;;
24143;SDS011;12307;50.828;6.080;2023-07-31T00:53:01;1.10;;;0.90;;
24143;SDS011;12307;50.828;6.080;2023-07-31T00:55:27;1.30;;;1.05;;
24143;SDS011;12307;50.828;6.080;2023-07-31T00:57:53;1.13;;;0.98;;
24143;SDS011;12307;50.828;6.080;2023-07-31T01:00:20;1.42;;;1.10;;
24143;SDS011;12307;50.828;6.080;2023-07-31T01:02:46;1.13;;;1.02;;
24143;SDS011;12307;50.828;6.080;2023-07-31T01:05:14;1.08;;;0.95;;
24143;SDS011;12307;50.828;6.080;2023-07-31T01:07:42;1.30;;;1.00;;
24143;SDS011;12307;50.828;6.080;2023-07-31T01:10:15;1.95;;;1.40;;
24143;SDS011;12307;50.828;6.080;2023-07-31T01:12:44;1.15;;;1.00;;
24143;SDS011;12307;50.828;6.080;2023-07-31T01:15:11;1.15;;;1.05;;
24143;SDS011;12307;50.828;6.080;2023-07-31T01:17:39;1.23;;;1.00;;
24143;SDS011;12307;50.828;6.080;2023-07-31T01:20:07;1.92;;;1.20;;
24143;SDS011;12307;50.828;6.080;2023-07-31T01:22:43;1.38;;;1.10;;
24143;SDS011;12307;50.828;6.080;2023-07-31T01:25:56;1.45;;;1.15;;
24143;SDS011;12307;50.828;6.080;2023-07-31T01:28:29;1.20;;;1.10;;
24143;SDS011;12307;50.828;6.080;2023-07-31T01:31:03;1.63;;;1.10;;
24143;SDS011;12307;50.828;6.080;2023-07-31T01:33:32;1.10;;;1.00;;
24143;SDS011;12307;50.828;6.080;2023-07-31T01:35:58;2.03;;;1.35;;
24143;SDS011;12307;50.828;6.080;2023-07-31T01:38:24;1.35;;;1.20;;
24143;SDS011;12307;50.828;6.080;2023-07-31T01:40:50;1.40;;;1.00;;
24143;SDS011;12307;50.828;6.080;2023-07-31T01:43:19;1.63;;;1.20;;
24143;SDS011;12307;50.828;6.080;2023-07-31T01:45:44;1.13;;;1.00;;
24143;SDS011;12307;50.828;6.080;2023-07-31T01:48:10;1.70;;;1.20;;
24143;SDS011;12307;50.828;6.080;2023-07-31T01:50:36;1.05;;;0.95;;
24143;SDS011;12307;50.828;6.080;2023-07-31T01:53:02;1.30;;;1.20;;
24143;SDS011;12307;50.828;6.080;2023-07-31T01:55:27;1.38;;;1.20;;
24143;SDS011;12307;50.828;6.080;2023-07-31T01:57:53;1.25;;;0.90;;
24143;SDS011;12307;50.828;6.080;2023-07-31T02:00:20;1.20;;;1.10;;
24143;SDS011;12307;50.828;6.080;2023-07-31T02:02:46;1.38;;;1.20;;
24143;SDS011;12307;50.828;6.080;2023-07-31T02:05:11;1.25;;;1.13;;
24143;SDS011;12307;50.828;6.080;2023-07-31T02:07:37;1.70;;;1.23;;
24143;SDS011;12307;50.828;6.080;2023-07-31T02:10:03;1.52;;;1.23;;
24143;SDS011;12307;50.828;6.080;2023-07-31T02:12:29;1.27;;;1.10;;
24143;SDS011;12307;50.828;6.080;2023-07-31T02:14:58;1.83;;;1.35;;
24143;SDS011;12307;50.828;6.080;2023-07-31T02:17:25;1.60;;;1.20;;
24143;SDS011;12307;50.828;6.080;2023-07-31T02:19:51;1.27;;;1.17;;
24143;SDS011;12307;50.828;6.080;2023-07-31T02:22:17;1.45;;;1.30;;
24143;SDS011;12307;50.828;6.080;2023-07-31T02:24:43;1.38;;;1.27;;
24143;SDS011;12307;50.828;6.080;2023-07-31T02:27:09;1.52;;;1.10;;
24143;SDS011;12307;50.828;6.080;2023-07-31T02:29:34;1.10;;;1.00;;
24143;SDS011;12307;50.828;6.080;2023-07-31T02:32:00;1.45;;;1.35;;
24143;SDS011;12307;50.828;6.080;2023-07-31T02:34:27;1.33;;;1.15;;
24143;SDS011;12307;50.828;6.080;2023-07-31T02:36:53;1.10;;;1.00;;
24143;SDS011;12307;50.828;6.080;2023-07-31T02:39:18;1.25;;;1.15;;
24143;SDS011;12307;50.828;6.080;2023-07-31T02:41:44;1.10;;;1.00;;
24143;SDS011;12307;50.828;6.080;2023-07-31T02:44:10;1.95;;;1.38;;
24143;SDS011;12307;50.828;6.080;2023-07-31T02:46:38;1.30;;;1.20;;
24143;SDS011;12307;50.828;6.080;2023-07-31T02:49:04;1.30;;;1.20;;
24143;SDS011;12307;50.828;6.080;2023-07-31T02:51:31;1.35;;;1.10;;
24143;SDS011;12307;50.828;6.080;2023-07-31T02:53:57;1.30;;;1.20;;
24143;SDS011;12307;50.828;6.080;2023-07-31T02:56:22;1.60;;;1.15;;
24143;SDS011;12307;50.828;6.080;2023-07-31T02:58:48;2.05;;;1.38;;
24143;SDS011;12307;50.828;6.080;2023-07-31T03:01:14;1.20;;;1.10;;
24143;SDS011;12307;50.828;6.080;2023-07-31T03:03:40;1.20;;;1.10;;
24143;SDS011;12307;50.828;6.080;2023-07-31T03:06:06;1.60;;;1.40;;
24143;SDS011;12307;50.828;6.080;2023-07-31T03:08:33;1.15;;;1.05;;
24143;SDS011;12307;50.828;6.080;2023-07-31T03:10:59;1.50;;;1.23;;
24143;SDS011;12307;50.828;6.080;2023-07-31T03:13:25;1.63;;;1.30;;
24143;SDS011;12307;50.828;6.080;2023-07-31T03:15:51;1.33;;;1.20;;
24143;SDS011;12307;50.828;6.080;2023-07-31T03:18:16;1.38;;;1.20;;
24143;SDS011;12307;50.828;6.080;2023-07-31T03:20:42;1.48;;;1.15;;
24143;SDS011;12307;50.828;6.080;2023-07-31T03:23:09;1.52;;;1.42;;
24143;SDS011;12307;50.828;6.080;2023-07-31T03:25:36;1.20;;;1.10;;
24143;SDS011;12307;50.828;6.080;2023-07-31T03:28:01;2.05;;;1.40;;
24143;SDS011;12307;50.828;6.080;2023-07-31T03:30:27;1.63;;;1.23;;
24143;SDS011;12307;50.828;6.080;2023-07-31T03:32:53;1.65;;;1.30;;
24143;SDS011;12307;50.828;6.080;2023-07-31T03:35:18;1.38;;;1.17;;
24143;SDS011;12307;50.828;6.080;2023-07-31T03:37:44;1.65;;;1.40;;
24143;SDS011;12307;50.828;6.080;2023-07-31T03:40:10;1.10;;;1.00;;
24143;SDS011;12307;50.828;6.080;2023-07-31T03:42:37;1.38;;;1.10;;
24143;SDS011;12307;50.828;6.080;2023-07-31T03:45:04;1.70;;;1.40;;
24143;SDS011;12307;50.828;6.080;2023-07-31T03:47:30;1.30;;;1.08;;
24143;SDS011;12307;50.828;6.080;2023-07-31T03:49:56;1.30;;;1.20;;
24143;SDS011;12307;50.828;6.080;2023-07-31T03:52:22;1.35;;;1.25;;
24143;SDS011;12307;50.828;6.080;2023-07-31T03:54:48;1.67;;;1.38;;
24143;SDS011;12307;50.828;6.080;2023-07-31T03:57:13;1.88;;;1.52;;
24143;SDS011;12307;50.828;6.080;2023-07-31T03:59:40;1.58;;;1.20;;
24143;SDS011;12307;50.828;6.080;2023-07-31T04:02:06;1.98;;;1.50;;
24143;SDS011;12307;50.828;6.080;2023-07-31T04:04:32;1.17;;;1.08;;
24143;SDS011;12307;50.828;6.080;2023-07-31T04:06:58;1.77;;;1.35;;
24143;SDS011;12307;50.828;6.080;2023-07-31T04:09:23;1.20;;;1.10;;
24143;SDS011;12307;50.828;6.080;2023-07-31T04:11:49;1.27;;;1.08;;
24143;SDS011;12307;50.828;6.080;2023-07-31T04:14:15;1.40;;;1.30;;
24143;SDS011;12307;50.828;6.080;2023-07-31T04:16:42;1.85;;;1.40;;
24143;SDS011;12307;50.828;6.080;2023-07-31T04:19:07;1.42;;;1.27;;
24143;SDS011;12307;50.828;6.080;2023-07-31T04:21:33;1.30;;;1.20;;
24143;SDS011;12307;50.828;6.080;2023-07-31T04:23:59;1.50;;;1.40;;
24143;SDS011;12307;50.828;6.080;2023-07-31T04:26:25;1.42;;;1.33;;
24143;SDS011;12307;50.828;6.080;2023-07-31T04:28:50;1.60;;;1.42;;
24143;SDS011;12307;50.828;6.080;2023-07-31T04:31:16;1.35;;;1.25;;
24143;SDS011;12307;50.828;6.080;2023-07-31T04:33:43;1.20;;;1.10;;
24143;SDS011;12307;50.828;6.080;2023-07-31T04:36:09;2.55;;;1.50;;
24143;SDS011;12307;50.828;6.080;2023-07-31T04:38:35;1.42;;;1.30;;
24143;SDS011;12307;50.828;6.080;2023-07-31T04:41:00;1.40;;;1.10;;
24143;SDS011;12307;50.828;6.080;2023-07-31T04:43:26;1.67;;;1.30;;
24143;SDS011;12307;50.828;6.080;2023-07-31T04:45:52;1.50;;;1.30;;
24143;SDS011;12307;50.828;6.080;2023-07-31T04:48:19;1.55;;;1.40;;
24143;SDS011;12307;50.828;6.080;2023-07-31T04:50:46;1.27;;;1.00;;
24143;SDS011;12307;50.828;6.080;2023-07-31T04:53:11;1.40;;;1.20;;
24143;SDS011;12307;50.828;6.080;2023-07-31T04:55:37;1.38;;;1.05;;
24143;SDS011;12307;50.828;6.080;2023-07-31T04:58:03;1.50;;;1.35;;
24143;SDS011;12307;50.828;6.080;2023-07-31T05:00:29;1.50;;;1.20;;
24143;SDS011;12307;50.828;6.080;2023-07-31T05:02:54;1.42;;;1.20;;
24143;SDS011;12307;50.828;6.080;2023-07-31T05:05:20;1.83;;;1.50;;
24143;SDS011;12307;50.828;6.080;2023-07-31T05:07:47;1.90;;;1.38;;
24143;SDS011;12307;50.828;6.080;2023-07-31T05:10:13;1.15;;;1.00;;
24143;SDS011;12307;50.828;6.080;2023-07-31T05:12:39;1.23;;;1.13;;
24143;SDS011;12307;50.828;6.080;2023-07-31T05:15:05;1.50;;;1.30;;
24143;SDS011;12307;50.828;6.080;2023-07-31T05:17:31;2.00;;;1.15;;
24143;SDS011;12307;50.828;6.080;2023-07-31T05:19:57;1.33;;;1.23;;
24143;SDS011;12307;50.828;6.080;2023-07-31T05:22:23;1.60;;;1.40;;
24143;SDS011;12307;50.828;6.080;2023-07-31T05:24:50;1.50;;;1.30;;
24143;SDS011;12307;50.828;6.080;2023-07-31T05:27:16;1.80;;;1.40;;
24143;SDS011;12307;50.828;6.080;2023-07-31T05:29:43;1.90;;;1.60;;
24143;SDS011;12307;50.828;6.080;2023-07-31T05:32:09;1.80;;;1.40;;
24143;SDS011;12307;50.828;6.080;2023-07-31T05:34:35;1.45;;;1.20;;
24143;SDS011;12307;50.828;6.080;2023-07-31T05:37:00;1.20;;;1.10;;
24143;SDS011;12307;50.828;6.080;2023-07-31T05:39:26;1.40;;;1.30;;
24143;SDS011;12307;50.828;6.080;2023-07-31T05:41:53;1.83;;;1.42;;
24143;SDS011;12307;50.828;6.080;2023-07-31T05:44:19;1.50;;;1.23;;
24143;SDS011;12307;50.828;6.080;2023-07-31T05:46:45;1.23;;;1.13;;
24143;SDS011;12307;50.828;6.080;2023-07-31T05:49:10;1.40;;;1.30;;
24143;SDS011;12307;50.828;6.080;2023-07-31T05:51:36;1.20;;;1.10;;
24143;SDS011;12307;50.828;6.080;2023-07-31T05:54:02;2.03;;;1.38;;
24143;SDS011;12307;50.828;6.080;2023-07-31T05:56:28;1.10;;;1.00;;
24143;SDS011;12307;50.828;6.080;2023-07-31T05:58:55;1.60;;;1.50;;
24143;SDS011;12307;50.828;6.080;2023-07-31T06:01:22;1.20;;;1.10;;
24143;SDS011;12307;50.828;6.080;2023-07-31T06:03:48;1.67;;;1.35;;
24143;SDS011;12307;50.828;6.080;2023-07-31T06:06:13;1.60;;;1.30;;
24143;SDS011;12307;50.828;6.080;2023-07-31T06:08:39;1.52;;;1.30;;
24143;SDS011;12307;50.828;6.080;2023-07-31T06:11:05;1.80;;;1.40;;
24143;SDS011;12307;50.828;6.080;2023-07-31T06:13:32;1.45;;;1.35;;
24143;SDS011;12307;50.828;6.080;2023-07-31T06:16:00;1.50;;;1.10;;
24143;SDS011;12307;50.828;6.080;2023-07-31T06:18:30;1.20;;;1.10;;
24143;SDS011;12307;50.828;6.080;2023-07-31T06:20:55;1.38;;;1.15;;
24143;SDS011;12307;50.828;6.080;2023-07-31T06:23:21;1.48;;;1.30;;
24143;SDS011;12307;50.828;6.080;2023-07-31T06:25:47;1.27;;;1.10;;
24143;SDS011;12307;50.828;6.080;2023-07-31T06:28:13;1.23;;;1.13;;
24143;SDS011;12307;50.828;6.080;2023-07-31T06:30:39;1.30;;;1.20;;
24143;SDS011;12307;50.828;6.080;2023-07-31T06:33:06;1.48;;;1.30;;
24143;SDS011;12307;50.828;6.080;2023-07-31T06:35:32;1.52;;;1.20;;
24143;SDS011;12307;50.828;6.080;2023-07-31T06:37:58;1.90;;;1.15;;
24143;SDS011;12307;50.828;6.080;2023-07-31T06:40:24;1.38;;;1.27;;
24143;SDS011;12307;50.828;6.080;2023-07-31T06:42:50;1.67;;;1.50;;
24143;SDS011;12307;50.828;6.080;2023-07-31T06:45:16;1.25;;;1.15;;
24143;SDS011;12307;50.828;6.080;2023-07-31T06:47:42;1.65;;;1.10;;
24143;SDS011;12307;50.828;6.080;2023-07-31T06:50:09;1.50;;;1.38;;
24143;SDS011;12307;50.828;6.080;2023-07-31T06:52:35;1.85;;;1.30;;
24143;SDS011;12307;50.828;6.080;2023-07-31T06:55:02;1.65;;;1.40;;
24143;SDS011;12307;50.828;6.080;2023-07-31T06:57:28;1.15;;;1.02;;
24143;SDS011;12307;50.828;6.080;2023-07-31T06:59:54;1.83;;;1.50;;
24143;SDS011;12307;50.828;6.080;2023-07-31T07:02:20;1.50;;;1.20;;
24143;SDS011;12307;50.828;6.080;2023-07-31T07:04:46;1.98;;;1.55;;
24143;SDS011;12307;50.828;6.080;2023-07-31T07:07:13;1.70;;;1.40;;
24143;SDS011;12307;50.828;6.080;2023-07-31T07:09:39;1.38;;;1.17;;
24143;SDS011;12307;50.828;6.080;2023-07-31T07:12:04;1.27;;;1.17;;
24143;SDS011;12307;50.828;6.080;2023-07-31T07:14:31;1.38;;;1.20;;
24143;SDS011;12307;50.828;6.080;2023-07-31T07:16:56;1.70;;;1.33;;
24143;SDS011;12307;50.828;6.080;2023-07-31T07:19:22;1.23;;;1.00;;
24143;SDS011;12307;50.828;6.080;2023-07-31T07:21:48;1.90;;;1.30;;
24143;SDS011;12307;50.828;6.080;2023-07-31T07:24:15;2.03;;;1.50;;
24143;SDS011;12307;50.828;6.080;2023-07-31T07:26:41;2.15;;;1.63;;
24143;SDS011;12307;50.828;6.080;2023-07-31T07:29:06;1.92;;;1.52;;
24143;SDS011;12307;50.828;6.080;2023-07-31T07:31:33;1.42;;;1.33;;
24143;SDS011;12307;50.828;6.080;2023-07-31T07:33:58;1.90;;;1.27;;
24143;SDS011;12307;50.828;6.080;2023-07-31T07:36:24;1.90;;;1.40;;
24143;SDS011;12307;50.828;6.080;2023-07-31T07:38:50;1.48;;;1.30;;
24143;SDS011;12307;50.828;6.080;2023-07-31T07:41:17;1.77;;;1.50;;
24143;SDS011;12307;50.828;6.080;2023-07-31T07:43:43;1.75;;;1.27;;
24143;SDS011;12307;50.828;6.080;2023-07-31T07:46:08;2.38;;;1.80;;
24143;SDS011;12307;50.828;6.080;2023-07-31T07:48:34;1.52;;;1.30;;
24143;SDS011;12307;50.828;6.080;2023-07-31T07:51:00;1.50;;;1.20;;
24143;SDS011;12307;50.828;6.080;2023-07-31T07:53:26;1.75;;;1.40;;
24143;SDS011;12307;50.828;6.080;2023-07-31T07:55:51;1.60;;;1.50;;
24143;SDS011;12307;50.828;6.080;2023-07-31T07:58:18;1.95;;;1.52;;
24143;SDS011;12307;50.828;6.080;2023-07-31T08:00:48;1.58;;;1.40;;
24143;SDS011;12307;50.828;6.080;2023-07-31T08:03:14;1.52;;;1.35;;
24143;SDS011;12307;50.828;6.080;2023-07-31T08:05:39;1.63;;;1.52;;
24143;SDS011;12307;50.828;6.080;2023-07-31T08:08:06;1.35;;;1.25;;
24143;SDS011;12307;50.828;6.080;2023-07-31T08:10:31;1.42;;;1.33;;
24143;SDS011;12307;50.828;6.080;2023-07-31T08:12:57;1.42;;;1.33;;
24143;SDS011;12307;50.828;6.080;2023-07-31T08:15:24;1.40;;;1.30;;
24143;SDS011;12307;50.828;6.080;2023-07-31T08:17:50;2.10;;;1.45;;
24143;SDS011;12307;50.828;6.080;2023-07-31T08:20:16;1.67;;;1.48;;
24143;SDS011;12307;50.828;6.080;2023-07-31T08:22:41;1.35;;;1.25;;
24143;SDS011;12307;50.828;6.080;2023-07-31T08:25:07;2.00;;;1.52;;
24143;SDS011;12307;50.828;6.080;2023-07-31T08:27:33;1.88;;;1.50;;
24143;SDS011;12307;50.828;6.080;2023-07-31T08:29:59;2.20;;;1.60;;
24143;SDS011;12307;50.828;6.080;2023-07-31T08:32:26;1.55;;;1.42;;
24143;SDS011;12307;50.828;6.080;2023-07-31T08:34:51;1.58;;;1.48;;
24143;SDS011;12307;50.828;6.080;2023-07-31T08:37:17;1.60;;;1.42;;
24143;SDS011;12307;50.828;6.080;2023-07-31T08:39:43;1.98;;;1.50;;
24143;SDS011;12307;50.828;6.080;2023-07-31T08:42:09;1.70;;;1.40;;
24143;SDS011;12307;50.828;6.080;2023-07-31T08:44:34;1.55;;;1.45;;
24143;SDS011;12307;50.828;6.080;2023-07-31T08:47:01;1.48;;;1.38;;
24143;SDS011;12307;50.828;6.080;2023-07-31T08:49:29;1.55;;;1.45;;
24143;SDS011;12307;50.828;6.080;2023-07-31T08:51:56;2.25;;;1.63;;
24143;SDS011;12307;50.828;6.080;2023-07-31T08:54:23;1.90;;;1.60;;
24143;SDS011;12307;50.828;6.080;2023-07-31T08:56:49;2.20;;;1.63;;
24143;SDS011;12307;50.828;6.080;2023-07-31T08:59:16;2.20;;;1.60;;
24143;SDS011;12307;50.828;6.080;2023-07-31T09:01:44;1.60;;;1.50;;
24143;SDS011;12307;50.828;6.080;2023-07-31T09:04:14;2.10;;;1.60;;
24143;SDS011;12307;50.828;6.080;2023-07-31T09:06:43;1.90;;;1.70;;
24143;SDS011;12307;50.828;6.080;2023-07-31T09:09:09;2.13;;;1.50;;
24143;SDS011;12307;50.828;6.080;2023-07-31T09:11:35;1.75;;;1.60;;
24143;SDS011;12307;50.828;6.080;2023-07-31T09:14:01;2.65;;;1.70;;
24143;SDS011;12307;50.828;6.080;2023-07-31T09:16:33;1.70;;;1.30;;
24143;SDS011;12307;50.828;6.080;2023-07-31T09:18:59;1.83;;;1.48;;
24143;SDS011;12307;50.828;6.080;2023-07-31T09:21:27;1.35;;;1.20;;
24143;SDS011;12307;50.828;6.080;2023-07-31T09:23:56;2.45;;;1.40;;
24143;SDS011;12307;50.828;6.080;2023-07-31T09:26:29;1.55;;;1.38;;
24143;SDS011;12307;50.828;6.080;2023-07-31T09:28:55;1.30;;;1.20;;
24143;SDS011;12307;50.828;6.080;2023-07-31T09:31:31;1.45;;;1.30;;
24143;SDS011;12307;50.828;6.080;2023-07-31T09:33:57;1.48;;;1.30;;
24143;SDS011;12307;50.828;6.080;2023-07-31T09:36:23;1.63;;;1.40;;
24143;SDS011;12307;50.828;6.080;2023-07-31T09:38:48;1.90;;;1.38;;
24143;SDS011;12307;50.828;6.080;2023-07-31T09:41:15;1.67;;;1.40;;
24143;SDS011;12307;50.828;6.080;2023-07-31T09:43:41;1.75;;;1.60;;
24143;SDS011;12307;50.828;6.080;2023-07-31T09:46:18;5.13;;;1.40;;
24143;SDS011;12307;50.828;6.080;2023-07-31T09:48:46;2.00;;;1.52;;
24143;SDS011;12307;50.828;6.080;2023-07-31T09:51:12;2.70;;;1.75;;
24143;SDS011;12307;50.828;6.080;2023-07-31T09:53:38;2.25;;;1.67;;
24143;SDS011;12307;50.828;6.080;2023-07-31T09:56:04;3.25;;;1.80;;
24143;SDS011;12307;50.828;6.080;2023-07-31T09:58:32;2.75;;;1.67;;
24143;SDS011;12307;50.828;6.080;2023-07-31T10:00:59;3.85;;;2.40;;
24143;SDS011;12307;50.828;6.080;2023-07-31T10:03:27;3.95;;;2.13;;
24143;SDS011;12307;50.828;6.080;2023-07-31T10:05:56;3.85;;;2.20;;
24143;SDS011;12307;50.828;6.080;2023-07-31T10:08:23;2.85;;;2.08;;
24143;SDS011;12307;50.828;6.080;2023-07-31T10:10:57;3.10;;;2.08;;
24143;SDS011;12307;50.828;6.080;2023-07-31T10:13:25;3.55;;;2.15;;
24143;SDS011;12307;50.828;6.080;2023-07-31T10:15:54;2.83;;;1.70;;
24143;SDS011;12307;50.828;6.080;2023-07-31T10:18:24;1.67;;;1.58;;
24143;SDS011;12307;50.828;6.080;2023-07-31T10:20:50;3.15;;;2.10;;
24143;SDS011;12307;50.828;6.080;2023-07-31T10:23:17;2.25;;;1.50;;
24143;SDS011;12307;50.828;6.080;2023-07-31T10:25:43;2.40;;;1.70;;
24143;SDS011;12307;50.828;6.080;2023-07-31T10:28:09;2.60;;;1.70;;
24143;SDS011;12307;50.828;6.080;2023-07-31T10:30:37;2.88;;;1.80;;
24143;SDS011;12307;50.828;6.080;2023-07-31T10:33:05;2.72;;;1.95;;
24143;SDS011;12307;50.828;6.080;2023-07-31T10:35:32;2.92;;;1.73;;
24143;SDS011;12307;50.828;6.080;2023-07-31T10:38:07;2.50;;;1.70;;
24143;SDS011;12307;50.828;6.080;2023-07-31T10:40:35;4.03;;;1.67;;
24143;SDS011;12307;50.828;6.080;2023-07-31T10:43:01;3.15;;;1.38;;
24143;SDS011;12307;50.828;6.080;2023-07-31T10:45:32;2.97;;;1.40;;
24143;SDS011;12307;50.828;6.080;2023-07-31T10:48:01;2.17;;;1.35;;
24143;SDS011;12307;50.828;6.080;2023-07-31T10:50:30;2.95;;;1.38;;
24143;SDS011;12307;50.828;6.080;2023-07-31T10:53:00;2.90;;;1.48;;
24143;SDS011;12307;50.828;6.080;2023-07-31T10:55:30;1.70;;;1.50;;
24143;SDS011;12307;50.828;6.080;2023-07-31T10:57:57;1.92;;;1.40;;
24143;SDS011;12307;50.828;6.080;2023-07-31T11:00:30;2.80;;;1.50;;
24143;SDS011;12307;50.828;6.080;2023-07-31T11:03:00;2.00;;;1.40;;
24143;SDS011;12307;50.828;6.080;2023-07-31T11:08:24;1.58;;;1.30;;
24143;SDS011;12307;50.828;6.080;2023-07-31T11:11:04;2.22;;;1.35;;
24143;SDS011;12307;50.828;6.080;2023-07-31T11:13:31;2.05;;;1.20;;
24143;SDS011;12307;50.828;6.080;2023-07-31T11:15:58;1.35;;;1.00;;
24143;SDS011;12307;50.828;6.080;2023-07-31T11:18:24;1.23;;;1.00;;
24143;SDS011;12307;50.828;6.080;2023-07-31T11:20:53;1.48;;;1.08;;
24143;SDS011;12307;50.828;6.080;2023-07-31T11:23:19;2.33;;;1.13;;
24143;SDS011;12307;50.828;6.080;2023-07-31T11:25:46;1.30;;;1.02;;
24143;SDS011;12307;50.828;6.080;2023-07-31T11:28:13;1.45;;;1.15;;
24143;SDS011;12307;50.828;6.080;2023-07-31T11:30:40;1.55;;;1.27;;
24143;SDS011;12307;50.828;6.080;2023-07-31T11:33:08;1.50;;;1.30;;
24143;SDS011;12307;50.828;6.080;2023-07-31T11:35:35;1.80;;;1.50;;
24143;SDS011;12307;50.828;6.080;2023-07-31T11:38:08;2.40;;;1.58;;
24143;SDS011;12307;50.828;6.080;2023-07-31T11:40:40;1.50;;;1.40;;
24143;SDS011;12307;50.828;6.080;2023-07-31T11:43:06;1.67;;;1.35;;
24143;SDS011;12307;50.828;6.080;2023-07-31T11:45:32;1.58;;;1.48;;
24143;SDS011;12307;50.828;6.080;2023-07-31T11:48:00;2.30;;;1.60;;
24143;SDS011;12307;50.828;6.080;2023-07-31T11:50:26;2.00;;;1.50;;
24143;SDS011;12307;50.828;6.080;2023-07-31T11:52:54;3.10;;;1.80;;
24143;SDS011;12307;50.828;6.080;2023-07-31T11:55:25;3.22;;;1.60;;
24143;SDS011;12307;50.828;6.080;2023-07-31T11:57:52;2.53;;;1.48;;
24143;SDS011;12307;50.828;6.080;2023-07-31T12:00:21;2.47;;;1.90;;
24143;SDS011;12307;50.828;6.080;2023-07-31T12:02:47;2.35;;;1.70;;
24143;SDS011;12307;50.828;6.080;2023-07-31T12:05:13;2.08;;;1.70;;
24143;SDS011;12307;50.828;6.080;2023-07-31T12:07:43;2.20;;;1.90;;
24143;SDS011;12307;50.828;6.080;2023-07-31T12:10:09;2.83;;;1.83;;
24143;SDS011;12307;50.828;6.080;2023-07-31T12:12:37;3.80;;;2.03;;
24143;SDS011;12307;50.828;6.080;2023-07-31T12:15:02;3.38;;;2.25;;
24143;SDS011;12307;50.828;6.080;2023-07-31T12:17:39;3.17;;;2.65;;
24143;SDS011;12307;50.828;6.080;2023-07-31T12:20:05;3.65;;;2.35;;
24143;SDS011;12307;50.828;6.080;2023-07-31T12:22:32;3.63;;;2.63;;
24143;SDS011;12307;50.828;6.080;2023-07-31T12:24:58;3.42;;;2.42;;
24143;SDS011;12307;50.828;6.080;2023-07-31T12:27:23;3.63;;;2.63;;
24143;SDS011;12307;50.828;6.080;2023-07-31T12:29:52;4.60;;;2.75;;
24143;SDS011;12307;50.828;6.080;2023-07-31T12:32:19;3.38;;;2.50;;
24143;SDS011;12307;50.828;6.080;2023-07-31T12:34:45;2.90;;;2.17;;
24143;SDS011;12307;50.828;6.080;2023-07-31T12:37:11;2.78;;;2.47;;
24143;SDS011;12307;50.828;6.080;2023-07-31T12:39:37;2.58;;;2.35;;
24143;SDS011;12307;50.828;6.080;2023-07-31T12:42:03;3.35;;;2.50;;
24143;SDS011;12307;50.828;6.080;2023-07-31T12:44:29;2.45;;;2.25;;
24143;SDS011;12307;50.828;6.080;2023-07-31T12:46:57;3.15;;;2.15;;
24143;SDS011;12307;50.828;6.080;2023-07-31T12:49:22;2.47;;;1.90;;
24143;SDS011;12307;50.828;6.080;2023-07-31T12:51:48;2.70;;;1.90;;
24143;SDS011;12307;50.828;6.080;2023-07-31T12:54:14;2.30;;;2.10;;
24143;SDS011;12307;50.828;6.080;2023-07-31T12:56:39;2.88;;;2.10;;
24143;SDS011;12307;50.828;6.080;2023-07-31T12:59:05;4.22;;;2.20;;
24143;SDS011;12307;50.828;6.080;2023-07-31T13:01:31;2.08;;;1.88;;
24143;SDS011;12307;50.828;6.080;2023-07-31T13:03:58;2.85;;;2.05;;
24143;SDS011;12307;50.828;6.080;2023-07-31T13:06:24;3.22;;;2.10;;
24143;SDS011;12307;50.828;6.080;2023-07-31T13:08:50;2.45;;;1.80;;
24143;SDS011;12307;50.828;6.080;2023-07-31T13:11:16;2.22;;;1.80;;
24143;SDS011;12307;50.828;6.080;2023-07-31T13:13:42;1.92;;;1.77;;
24143;SDS011;12307;50.828;6.080;2023-07-31T13:16:07;2.05;;;1.85;;
24143;SDS011;12307;50.828;6.080;2023-07-31T13:18:33;1.98;;;1.75;;
24143;SDS011;12307;50.828;6.080;2023-07-31T13:21:00;2.30;;;1.80;;
24143;SDS011;12307;50.828;6.080;2023-07-31T13:23:26;2.65;;;1.83;;
24143;SDS011;12307;50.828;6.080;2023-07-31T13:25:51;2.17;;;1.80;;
24143;SDS011;12307;50.828;6.080;2023-07-31T13:28:17;2.00;;;1.77;;
24143;SDS011;12307;50.828;6.080;2023-07-31T13:30:43;2.58;;;2.03;;
24143;SDS011;12307;50.828;6.080;2023-07-31T13:33:09;2.38;;;2.00;;
24143;SDS011;12307;50.828;6.080;2023-07-31T13:35:34;1.73;;;1.63;;
24143;SDS011;12307;50.828;6.080;2023-07-31T13:38:01;2.08;;;1.70;;
24143;SDS011;12307;50.828;6.080;2023-07-31T13:40:27;2.20;;;1.80;;
24143;SDS011;12307;50.828;6.080;2023-07-31T13:42:53;1.70;;;1.60;;
24143;SDS011;12307;50.828;6.080;2023-07-31T13:45:19;2.38;;;1.83;;
24143;SDS011;12307;50.828;6.080;2023-07-31T13:47:45;2.55;;;1.90;;
24143;SDS011;12307;50.828;6.080;2023-07-31T13:50:11;3.03;;;2.00;;
24143;SDS011;12307;50.828;6.080;2023-07-31T13:52:36;2.13;;;1.65;;
24143;SDS011;12307;50.828;6.080;2023-07-31T13:55:04;3.05;;;1.70;;
24143;SDS011;12307;50.828;6.080;2023-07-31T13:57:30;2.40;;;1.70;;
24143;SDS011;12307;50.828;6.080;2023-07-31T13:59:56;2.00;;;1.50;;
24143;SDS011;12307;50.828;6.080;2023-07-31T14:02:22;1.95;;;1.70;;
24143;SDS011;12307;50.828;6.080;2023-07-31T14:04:48;2.00;;;1.73;;
24143;SDS011;12307;50.828;6.080;2023-07-31T14:07:13;2.58;;;1.75;;
24143;SDS011;12307;50.828;6.080;2023-07-31T14:09:39;2.25;;;1.73;;
24143;SDS011;12307;50.828;6.080;2023-07-31T14:12:06;2.50;;;1.90;;
24143;SDS011;12307;50.828;6.080;2023-07-31T14:14:32;2.25;;;1.90;;
24143;SDS011;12307;50.828;6.080;2023-07-31T14:16:59;2.13;;;1.67;;
24143;SDS011;12307;50.828;6.080;2023-07-31T14:19:24;2.25;;;1.85;;
24143;SDS011;12307;50.828;6.080;2023-07-31T14:21:50;2.50;;;1.95;;
24143;SDS011;12307;50.828;6.080;2023-07-31T14:24:16;2.40;;;1.80;;
24143;SDS011;12307;50.828;6.080;2023-07-31T14:26:41;2.13;;;1.90;;
24143;SDS011;12307;50.828;6.080;2023-07-31T14:29:09;2.67;;;1.85;;
24143;SDS011;12307;50.828;6.080;2023-07-31T14:31:35;1.85;;;1.65;;
24143;SDS011;12307;50.828;6.080;2023-07-31T14:34:01;2.83;;;1.92;;
24143;SDS011;12307;50.828;6.080;2023-07-31T14:36:30;3.78;;;1.85;;
24143;SDS011;12307;50.828;6.080;2023-07-31T14:38:55;2.35;;;1.80;;
24143;SDS011;12307;50.828;6.080;2023-07-31T14:41:21;1.92;;;1.70;;
24143;SDS011;12307;50.828;6.080;2023-07-31T14:43:47;1.77;;;1.67;;
24143;SDS011;12307;50.828;6.080;2023-07-31T14:46:14;1.80;;;1.70;;
24143;SDS011;12307;50.828;6.080;2023-07-31T14:48:39;2.38;;;1.90;;